Time;durP1;ratioP1;P1;durP2;ratioP2;P2;SDS_P1;SDS_P2;PMS_P1;PMS_P2;Temp;Humidity;BMP_temperature;BMP_pressure;BME280_temperature;BME280_humidity;BME280_pressure;Samples;Min_cycle;Max_cycle;Signal;HPM_P1;HPM_P2
2021/03/19 00:00:20;;;;;;;28.93;19.33;;;;;;;6.43;64.42;100676.75;5060791;28;20511;-78
2021/03/19 00:02:46;;;;;;;30.97;21.73;;;;;;;6.43;64.11;100685.56;5062045;28;20453;-78
2021/03/19 00:05:14;;;;;;;29.23;20.87;;;;;;;6.14;64.84;100684.84;5060070;28;20495;-78
2021/03/19 00:07:44;;;;;;;34.80;22.07;;;;;;;6.20;64.87;100684.44;5061749;28;20433;-77
2021/03/19 00:10:11;;;;;;;33.97;23.17;;;;;;;6.14;65.14;100687.50;5060873;28;20499;-78
2021/03/19 00:12:38;;;;;;;31.87;21.97;;;;;;;6.10;65.04;100686.84;5061305;28;20551;-79
2021/03/19 00:15:06;;;;;;;34.57;22.97;;;;;;;5.82;66.04;100690.44;5060598;28;20496;-79
2021/03/19 00:17:32;;;;;;;31.00;22.03;;;;;;;6.29;64.52;100689.16;5061834;28;20507;-79
2021/03/19 00:19:58;;;;;;;35.93;23.70;;;;;;;5.78;66.29;100683.59;5061441;28;20449;-79
2021/03/19 00:22:24;;;;;;;37.23;22.70;;;;;;;6.04;65.07;100692.56;5052609;28;20481;-78
2021/03/19 00:24:51;;;;;;;30.57;20.80;;;;;;;5.74;66.12;100700.69;5061104;28;20457;-78
2021/03/19 00:27:18;;;;;;;33.03;21.97;;;;;;;5.50;66.64;100698.63;5060573;28;20480;-78
2021/03/19 00:29:44;;;;;;;37.33;23.03;;;;;;;5.36;67.37;100714.56;5060967;28;20480;-77
2021/03/19 00:32:10;;;;;;;35.23;23.00;;;;;;;5.33;67.30;100712.09;5060844;28;20519;-78
2021/03/19 00:34:36;;;;;;;41.20;24.03;;;;;;;5.49;66.55;100707.56;5060629;28;20457;-78
2021/03/19 00:37:03;;;;;;;31.27;21.83;;;;;;;5.17;67.42;100714.84;5060256;28;21023;-78
2021/03/19 00:39:29;;;;;;;34.53;22.70;;;;;;;5.11;67.35;100713.44;5061259;28;20963;-78
2021/03/19 00:41:56;;;;;;;33.53;22.20;;;;;;;5.31;66.51;100712.19;5059994;28;20487;-78
2021/03/19 00:44:22;;;;;;;34.77;23.83;;;;;;;5.31;66.46;100714.84;5061232;28;20476;-79
2021/03/19 00:46:48;;;;;;;39.17;22.57;;;;;;;5.12;66.61;100709.84;5060458;28;20477;-78
2021/03/19 00:49:15;;;;;;;33.33;20.60;;;;;;;5.26;65.81;100712.50;5061076;28;20495;-78
2021/03/19 00:51:41;;;;;;;35.60;21.13;;;;;;;5.35;65.47;100696.97;5059767;28;20491;-79
2021/03/19 00:54:07;;;;;;;39.33;21.87;;;;;;;5.11;66.07;100708.13;5060480;28;20467;-79
2021/03/19 00:56:33;;;;;;;31.60;20.33;;;;;;;4.75;66.71;100704.13;5059956;28;20481;-78
2021/03/19 00:59:00;;;;;;;35.80;19.83;;;;;;;5.01;65.91;100699.03;5059627;28;20999;-79
2021/03/19 01:01:27;;;;;;;30.53;18.57;;;;;;;4.80;66.30;100704.69;5060263;28;20497;-79
2021/03/19 01:03:53;;;;;;;33.87;21.50;;;;;;;4.75;66.57;100700.63;5060269;28;20506;-80
2021/03/19 01:06:19;;;;;;;34.37;20.17;;;;;;;5.00;65.66;100707.91;5060687;28;20480;-79
2021/03/19 01:08:45;;;;;;;31.63;18.73;;;;;;;4.81;65.84;100705.53;5060991;28;20959;-79
2021/03/19 01:11:11;;;;;;;31.97;19.40;;;;;;;4.62;66.72;100708.47;5059409;28;20471;-79
2021/03/19 01:13:38;;;;;;;29.10;18.97;;;;;;;4.69;66.26;100715.09;5061048;28;20437;-79
2021/03/19 01:16:05;;;;;;;33.67;21.40;;;;;;;4.52;66.65;100716.94;5061212;28;20476;-80
2021/03/19 01:18:32;;;;;;;29.70;19.40;;;;;;;5.06;64.89;100704.91;5065039;28;20452;-81
2021/03/19 01:20:59;;;;;;;27.97;20.10;;;;;;;5.00;64.77;100706.16;5063277;28;20468;-80
2021/03/19 01:23:25;;;;;;;28.93;19.70;;;;;;;5.13;64.11;100700.94;5064585;28;20455;-83
2021/03/19 01:25:51;;;;;;;29.40;17.40;;;;;;;5.13;64.17;100706.25;5063608;28;21227;-82
2021/03/19 01:28:18;;;;;;;29.57;17.23;;;;;;;5.11;63.61;100708.13;5064791;28;20472;-82
2021/03/19 01:30:45;;;;;;;27.40;18.00;;;;;;;4.77;64.78;100710.16;5063559;28;20480;-82
2021/03/19 01:33:12;;;;;;;28.70;18.15;;;;;;;5.03;63.93;100711.22;5064746;28;20468;-82
2021/03/19 01:35:40;;;;;;;32.30;18.90;;;;;;;4.96;64.06;100709.91;5063614;28;20235;-82
2021/03/19 01:38:07;;;;;;;30.40;19.23;;;;;;;4.57;65.45;100721.13;5064484;28;20433;-82
2021/03/19 01:40:35;;;;;;;32.73;20.83;;;;;;;4.73;65.33;100713.94;5063321;28;20222;-81
2021/03/19 01:43:03;;;;;;;29.50;18.00;;;;;;;4.78;64.82;100722.47;5064353;28;20453;-81
2021/03/19 01:46:05;;;;;;;32.03;18.23;;;;;;;4.74;64.23;100722.75;5063416;28;20475;-81
2021/03/19 01:49:09;;;;;;;26.23;17.53;;;;;;;4.63;63.92;100718.94;5064306;28;20484;-81
2021/03/19 01:52:12;;;;;;;31.70;17.47;;;;;;;4.29;65.00;100709.50;5063512;28;20477;-82
2021/03/19 01:55:16;;;;;;;29.50;21.07;;;;;;;4.22;65.17;100724.88;5063855;28;20471;-81
2021/03/19 01:58:19;;;;;;;32.17;19.20;;;;;;;4.20;65.60;100724.13;5063321;28;20460;-82
2021/03/19 02:01:23;;;;;;;30.87;17.53;;;;;;;4.18;65.39;100738.34;5057959;28;20488;-81
2021/03/19 02:04:41;;;;;;;34.73;20.03;;;;;;;4.23;65.32;100726.56;5043808;28;20492;-78
2021/03/19 02:07:44;;;;;;;31.20;19.67;;;;;;;4.38;64.96;100731.94;5013179;28;20482;-79
2021/03/19 02:10:48;;;;;;;29.03;18.70;;;;;;;4.31;65.00;100731.44;5020843;28;20215;-77
2021/03/19 02:13:51;;;;;;;31.47;19.37;;;;;;;4.12;65.26;100732.47;5012168;28;20455;-78
2021/03/19 02:16:55;;;;;;;31.53;19.27;;;;;;;4.07;65.53;100731.88;5011164;28;20470;-80
2021/03/19 02:19:59;;;;;;;32.17;19.77;;;;;;;4.02;65.84;100738.38;5021015;28;20454;-79
2021/03/19 02:23:02;;;;;;;31.35;19.55;;;;;;;4.02;65.37;100749.81;5020876;28;20482;-80
2021/03/19 02:26:05;;;;;;;33.65;18.90;;;;;;;4.11;65.00;100759.03;5018251;28;20239;-80
2021/03/19 02:29:09;;;;;;;29.33;17.77;;;;;;;3.77;65.86;100752.97;4991994;28;20286;-80
2021/03/19 02:31:53;;;;;;;29.23;17.90;;;;;;;3.93;65.27;100759.09;5013506;28;20476;-80
2021/03/19 02:34:19;;;;;;;29.63;18.03;;;;;;;4.13;64.58;100765.06;5020916;28;20470;-78
2021/03/19 02:36:46;;;;;;;24.95;15.00;;;;;;;3.88;64.39;100755.03;5015131;28;21026;-81
2021/03/19 02:39:12;;;;;;;26.60;15.70;;;;;;;4.05;64.35;100759.38;5043735;28;20191;-80
2021/03/19 02:41:38;;;;;;;22.00;15.63;;;;;;;4.14;63.71;100754.41;5056890;28;20234;-80
2021/03/19 02:44:05;;;;;;;22.77;14.63;;;;;;;3.77;64.38;100748.53;5062810;28;20214;-80
2021/03/19 02:46:31;;;;;;;23.57;14.60;;;;;;;3.64;64.69;100749.28;5060556;28;21019;-80
2021/03/19 02:48:58;;;;;;;20.93;14.20;;;;;;;3.56;64.79;100757.66;5042618;28;20470;-79
2021/03/19 02:51:24;;;;;;;25.02;13.10;;;;;;;3.38;65.40;100762.13;5056983;28;21050;-79
2021/03/19 02:53:50;;;;;;;23.27;14.98;;;;;;;3.59;64.84;100770.69;5062475;28;20210;-78
2021/03/19 02:56:17;;;;;;;23.42;14.05;;;;;;;3.67;64.65;100765.00;5056548;28;20223;-77
2021/03/19 02:58:43;;;;;;;21.42;12.65;;;;;;;3.44;64.19;100756.53;5055157;28;20198;-77
2021/03/19 03:01:09;;;;;;;20.17;12.43;;;;;;;3.48;64.36;100763.34;5062378;28;20238;-78
2021/03/19 03:03:35;;;;;;;27.50;13.88;;;;;;;3.51;63.77;100768.47;5062813;28;20238;-81
2021/03/19 03:06:03;;;;;;;24.77;11.87;;;;;;;3.13;65.41;100786.34;5061693;28;20268;-77
2021/03/19 03:08:30;;;;;;;23.15;12.80;;;;;;;3.24;64.89;100773.41;5062813;28;20473;-80
2021/03/19 03:10:57;;;;;;;18.25;11.10;;;;;;;3.25;64.96;100784.88;5061759;28;20707;-79
2021/03/19 03:13:24;;;;;;;17.75;11.60;;;;;;;3.15;64.49;100785.31;5062382;28;20599;-80
2021/03/19 03:15:50;;;;;;;17.00;12.20;;;;;;;2.95;65.47;100803.97;5062196;28;20238;-81
2021/03/19 03:18:17;;;;;;;19.13;11.30;;;;;;;3.21;64.96;100805.28;5062819;28;20425;-79
2021/03/19 03:20:46;;;;;;;18.83;11.75;;;;;;;2.94;65.40;100810.22;5061724;28;20242;-78
2021/03/19 03:23:14;;;;;;;14.93;10.85;;;;;;;3.23;64.03;100816.66;5042936;28;20207;-79
2021/03/19 03:25:41;;;;;;;16.83;10.95;;;;;;;3.00;65.28;100807.25;5055259;28;20249;-79
2021/03/19 03:28:08;;;;;;;17.70;11.40;;;;;;;3.13;64.45;100807.50;5061818;28;20202;-80
2021/03/19 03:30:37;;;;;;;18.58;11.40;;;;;;;3.03;64.44;100804.47;5061834;28;20315;-79
2021/03/19 03:33:04;;;;;;;17.85;10.73;;;;;;;2.96;64.72;100801.28;5047412;28;20199;-80
2021/03/19 03:35:31;;;;;;;18.27;11.23;;;;;;;2.99;64.76;100801.13;5056234;28;20258;-77
2021/03/19 03:37:58;;;;;;;12.98;9.82;;;;;;;2.93;64.76;100809.34;5062062;28;20199;-78
2021/03/19 03:40:28;;;;;;;17.02;10.63;;;;;;;2.88;64.83;100811.38;5059399;28;20242;-77
2021/03/19 03:42:54;;;;;;;15.23;11.30;;;;;;;2.82;65.05;100824.91;5056869;28;20203;-79
2021/03/19 03:45:20;;;;;;;16.17;11.13;;;;;;;2.81;64.96;100831.09;5053588;28;20217;-78
2021/03/19 03:47:47;;;;;;;13.40;9.85;;;;;;;2.77;64.89;100827.75;5062432;28;20460;-78
2021/03/19 03:50:15;;;;;;;14.40;10.05;;;;;;;2.70;65.04;100842.19;5060359;28;20231;-79
2021/03/19 03:52:41;;;;;;;13.82;11.23;;;;;;;2.51;65.46;100836.97;5055457;28;20199;-78
2021/03/19 03:55:09;;;;;;;12.45;9.63;;;;;;;2.75;64.91;100839.34;5059316;28;20272;-79
2021/03/19 03:57:36;;;;;;;15.57;9.98;;;;;;;2.70;64.82;100839.56;5061710;28;20198;-81
2021/03/19 04:00:05;;;;;;;13.68;9.80;;;;;;;2.82;64.48;100846.84;5061490;28;20210;-78
2021/03/19 04:02:34;;;;;;;12.20;9.87;;;;;;;2.66;64.78;100850.31;5051444;28;20690;-81
2021/03/19 04:05:00;;;;;;;14.02;9.68;;;;;;;2.69;64.83;100848.41;5042815;28;20489;-82
2021/03/19 04:07:26;;;;;;;16.65;9.13;;;;;;;2.71;64.71;100843.03;5060870;28;20253;-81
2021/03/19 04:09:53;;;;;;;13.57;10.90;;;;;;;2.84;64.11;100852.06;5061865;28;20244;-81
2021/03/19 04:12:19;;;;;;;12.18;9.20;;;;;;;2.65;64.54;100849.47;5047484;28;20366;-81
2021/03/19 04:14:46;;;;;;;13.43;10.02;;;;;;;2.67;64.90;100844.13;5043797;28;20226;-80
2021/03/19 04:17:23;;;;;;;13.40;9.93;;;;;;;2.86;63.95;100844.91;5043809;28;20231;-81
2021/03/19 04:19:49;;;;;;;13.77;9.98;;;;;;;2.69;64.00;100840.50;5045192;28;20202;-81
2021/03/19 04:22:16;;;;;;;15.90;10.32;;;;;;;2.80;63.97;100838.16;5046407;28;20289;-81
2021/03/19 04:24:42;;;;;;;12.88;9.10;;;;;;;2.73;63.92;100849.97;5042354;28;20268;-81
2021/03/19 04:27:11;;;;;;;14.13;10.70;;;;;;;2.67;64.00;100849.41;5057420;28;20277;-80
2021/03/19 04:29:38;;;;;;;13.40;9.40;;;;;;;2.72;63.66;100847.41;5060948;28;20669;-82
2021/03/19 04:32:05;;;;;;;12.02;8.35;;;;;;;2.77;63.57;100850.66;5060739;28;20484;-82
2021/03/19 04:34:31;;;;;;;13.00;9.77;;;;;;;2.87;63.35;100854.56;5060503;28;20210;-80
2021/03/19 04:36:57;;;;;;;11.18;9.85;;;;;;;2.84;62.97;100854.72;5060549;28;20244;-81
2021/03/19 04:39:27;;;;;;;9.75;8.75;;;;;;;2.67;63.80;100863.44;5060822;28;20242;-82
2021/03/19 04:41:56;;;;;;;10.30;8.88;;;;;;;2.70;63.68;100862.47;5050623;28;20239;-81
2021/03/19 04:44:23;;;;;;;14.00;8.65;;;;;;;2.95;62.58;100870.91;5040805;28;20218;-79
2021/03/19 04:46:50;;;;;;;11.88;8.85;;;;;;;2.63;63.37;100865.41;5055618;28;20244;-81
2021/03/19 04:49:18;;;;;;;10.65;8.35;;;;;;;2.55;63.38;100875.50;5061136;28;20230;-81
2021/03/19 04:51:45;;;;;;;11.00;9.30;;;;;;;2.29;64.47;100867.94;5059907;28;20230;-80
2021/03/19 04:54:12;;;;;;;10.88;8.90;;;;;;;2.46;63.44;100873.28;5061412;28;20214;-79
2021/03/19 04:56:38;;;;;;;9.32;8.32;;;;;;;2.40;64.26;100886.78;5056395;28;20229;-80
2021/03/19 04:59:05;;;;;;;12.52;8.48;;;;;;;2.38;64.09;100886.00;5064766;28;20213;-82
2021/03/19 05:01:31;;;;;;;9.07;8.15;;;;;;;2.40;64.00;100886.78;5064889;28;20238;-83
2021/03/19 05:03:57;;;;;;;10.40;8.93;;;;;;;2.62;63.28;100882.19;5058576;28;20235;-82
2021/03/19 05:06:24;;;;;;;9.38;7.75;;;;;;;2.50;63.39;100892.44;5055431;28;20279;-82
2021/03/19 05:08:50;;;;;;;8.70;7.45;;;;;;;2.45;63.88;100890.06;5065347;28;20214;-81
2021/03/19 05:11:18;;;;;;;8.25;7.50;;;;;;;2.48;63.52;100889.03;5062413;28;20700;-82
2021/03/19 05:13:44;;;;;;;12.65;8.40;;;;;;;2.38;64.06;100889.47;5065007;28;20202;-81
2021/03/19 05:16:11;;;;;;;11.80;9.10;;;;;;;2.52;63.43;100894.09;5055061;28;20235;-82
2021/03/19 05:18:38;;;;;;;9.45;8.05;;;;;;;2.63;63.15;100893.59;5045147;28;20214;-80
2021/03/19 05:21:04;;;;;;;11.13;8.05;;;;;;;2.59;63.35;100897.31;5053225;28;20238;-81
2021/03/19 05:23:34;;;;;;;9.88;7.63;;;;;;;2.42;64.05;100909.50;5044826;28;20231;-81
2021/03/19 05:26:01;;;;;;;11.07;8.48;;;;;;;2.18;64.48;100903.59;5059762;28;20234;-79
2021/03/19 05:28:28;;;;;;;10.07;8.10;;;;;;;2.29;64.42;100904.88;5063592;28;20229;-80
2021/03/19 05:30:55;;;;;;;9.45;8.20;;;;;;;2.20;64.46;100908.81;5063853;28;20728;-82
2021/03/19 05:33:21;;;;;;;13.13;9.00;;;;;;;2.20;64.45;100907.00;5064080;28;20198;-79
2021/03/19 05:35:47;;;;;;;11.35;8.05;;;;;;;2.56;63.74;100919.41;5053294;28;20235;-80
2021/03/19 05:38:13;;;;;;;9.95;7.93;;;;;;;2.34;63.84;100916.91;5047315;28;20219;-79
2021/03/19 05:40:43;;;;;;;11.18;7.70;;;;;;;2.28;64.08;100922.50;5046673;28;20234;-82
2021/03/19 05:43:32;;;;;;;10.38;7.63;;;;;;;2.39;63.89;100920.19;5044662;28;20206;-79
2021/03/19 05:46:01;;;;;;;9.60;7.70;;;;;;;2.40;63.58;100921.09;5026750;28;20258;-81
2021/03/19 05:48:32;;;;;;;10.65;7.97;;;;;;;2.56;63.21;100926.50;5050851;28;20245;-83
2021/03/19 05:50:58;;;;;;;11.82;8.40;;;;;;;2.51;63.46;100928.50;5045208;28;20239;-81
2021/03/19 05:53:39;;;;;;;8.70;7.15;;;;;;;2.72;62.78;100934.53;5042986;28;20233;-81
2021/03/19 05:56:12;;;;;;;8.95;7.72;;;;;;;2.71;62.86;100928.41;5041996;28;20261;-79
2021/03/19 05:58:38;;;;;;;8.52;7.72;;;;;;;2.69;62.24;100939.94;5043005;28;20222;-80
2021/03/19 06:01:05;;;;;;;7.97;7.18;;;;;;;2.86;61.75;100933.88;5041772;28;20239;-80
2021/03/19 06:03:31;;;;;;;7.90;7.20;;;;;;;2.72;62.67;100938.00;5042778;28;20251;-81
2021/03/19 06:06:03;;;;;;;8.55;7.07;;;;;;;2.76;62.33;100939.59;5042710;28;20261;-83
2021/03/19 06:08:32;;;;;;;10.30;8.05;;;;;;;3.75;59.33;100942.63;5042518;28;20268;-82
2021/03/19 06:11:21;;;;;;;8.60;6.93;;;;;;;5.52;53.94;100940.75;5047732;28;20222;-80
2021/03/19 06:13:52;;;;;;;9.93;6.20;;;;;;;6.34;51.02;100947.28;5032438;28;20460;-81
2021/03/19 06:16:27;;;;;;;7.80;5.50;;;;;;;6.92;48.99;100940.03;5055376;28;20473;-82
2021/03/19 06:18:54;;;;;;;6.23;5.63;;;;;;;8.00;46.72;100945.25;5062793;28;20436;-80
2021/03/19 06:21:26;;;;;;;4.83;4.33;;;;;;;8.03;45.59;100945.03;5061496;28;20492;-82
2021/03/19 06:24:22;;;;;;;8.63;4.53;;;;;;;8.08;45.20;100948.25;5057626;28;20484;-80
2021/03/19 06:26:51;;;;;;;4.67;4.17;;;;;;;8.35;45.39;100947.25;5061759;28;20484;-82
2021/03/19 06:29:24;;;;;;;5.20;3.87;;;;;;;8.67;43.97;100959.16;5062919;28;20540;-81
2021/03/19 06:32:05;;;;;;;7.13;4.23;;;;;;;8.99;43.47;100957.75;5061329;28;20480;-78
2021/03/19 06:34:32;;;;;;;4.17;3.77;;;;;;;10.18;40.20;100958.47;5062375;28;20465;-79
2021/03/19 06:37:01;;;;;;;3.77;3.40;;;;;;;9.90;41.33;100958.94;5058055;28;20476;-81
2021/03/19 06:39:31;;;;;;;4.13;3.73;;;;;;;9.77;40.91;100954.56;5043206;28;20418;-81
2021/03/19 06:42:08;;;;;;;5.10;4.10;;;;;;;10.85;38.79;100955.91;5057943;28;20481;-80
2021/03/19 06:44:34;;;;;;;6.33;3.40;;;;;;;11.70;37.68;100955.09;5061832;28;20456;-81
2021/03/19 06:47:01;;;;;;;4.50;3.53;;;;;;;12.99;35.71;100962.56;5062011;28;20477;-78
2021/03/19 06:49:30;;;;;;;3.70;3.20;;;;;;;14.29;32.14;100967.56;5062097;28;20496;-80
2021/03/19 06:52:15;;;;;;;10.20;3.80;;;;;;;12.67;34.33;100968.13;5057722;28;20477;-80
2021/03/19 06:54:48;;;;;;;6.60;3.57;;;;;;;12.97;34.42;100977.97;5056781;28;20459;-80
2021/03/19 06:57:19;;;;;;;4.17;3.03;;;;;;;12.11;34.91;100979.34;5060803;28;20494;-82
2021/03/19 06:59:46;;;;;;;3.90;3.43;;;;;;;13.16;33.93;100992.44;5060263;28;20436;-82
2021/03/19 07:02:49;;;;;;;3.70;3.40;;;;;;;11.35;36.48;100988.34;5062113;28;20477;-82
2021/03/19 07:05:39;;;;;;;7.50;3.43;;;;;;;14.35;31.85;100995.72;5056663;28;20503;-82
2021/03/19 07:08:14;;;;;;;3.93;3.23;;;;;;;15.09;30.23;100999.34;5039260;28;20521;-81
2021/03/19 07:10:58;;;;;;;4.20;2.73;;;;;;;16.27;28.59;101001.91;5041207;28;20476;-80
2021/03/19 07:13:37;;;;;;;4.13;3.50;;;;;;;13.84;32.07;101016.63;5051497;28;20501;-82
2021/03/19 07:16:10;;;;;;;3.90;3.40;;;;;;;13.20;33.52;101009.94;5045979;28;20587;-80
2021/03/19 07:18:47;;;;;;;5.03;3.50;;;;;;;13.47;33.14;101003.06;5050055;28;20452;-79
2021/03/19 07:21:27;;;;;;;4.20;3.23;;;;;;;14.87;30.53;101011.38;5058201;28;20476;-80
2021/03/19 07:24:06;;;;;;;4.10;3.33;;;;;;;14.09;31.84;101017.03;5050135;28;20441;-82
2021/03/19 07:26:34;;;;;;;3.03;2.73;;;;;;;15.60;29.86;101021.25;5055692;28;20484;-83
2021/03/19 07:29:33;;;;;;;3.80;3.10;;;;;;;15.84;29.16;101041.38;5058858;28;20535;-83
2021/03/19 07:32:40;;;;;;;4.80;3.30;;;;;;;12.65;33.98;101039.03;5052442;28;20491;-84
2021/03/19 07:35:27;;;;;;;5.97;3.50;;;;;;;15.61;30.38;101044.50;5047087;28;20461;-84
2021/03/19 07:38:22;;;;;;;5.40;3.27;;;;;;;13.22;32.73;101029.44;5058943;28;20443;-81
2021/03/19 07:40:59;;;;;;;4.40;3.33;;;;;;;13.63;33.05;101040.97;5059935;28;20477;-82
2021/03/19 07:43:43;;;;;;;5.63;4.03;;;;;;;12.26;34.67;101045.03;5061517;28;20440;-83
2021/03/19 07:46:26;;;;;;;5.57;3.80;;;;;;;13.94;33.20;101055.13;5048004;28;21094;-83
2021/03/19 07:49:21;;;;;;;4.00;3.50;;;;;;;12.79;34.78;101057.44;5059706;28;20475;-80
2021/03/19 07:52:09;;;;;;;4.13;3.37;;;;;;;14.45;31.52;101068.34;5043333;28;20464;-81
2021/03/19 07:54:44;;;;;;;5.70;3.47;;;;;;;15.10;30.62;101064.84;5038269;28;20457;-81
2021/03/19 07:57:19;;;;;;;4.30;3.53;;;;;;;12.78;34.37;101061.97;5037083;28;20487;-82
2021/03/19 07:59:49;;;;;;;3.63;3.23;;;;;;;13.42;34.07;101054.53;5027642;28;20450;-83
2021/03/19 08:02:46;;;;;;;4.33;3.50;;;;;;;12.87;34.80;101060.28;5037811;28;20474;-83
2021/03/19 08:05:24;;;;;;;5.00;3.27;;;;;;;14.61;31.57;101078.50;5032931;28;20489;-82
2021/03/19 08:07:58;;;;;;;6.00;3.90;;;;;;;15.42;31.26;101077.84;5029633;28;20437;-82
2021/03/19 08:10:26;;;;;;;4.93;3.63;;;;;;;13.58;33.15;101078.16;5036816;28;20993;-82
2021/03/19 08:13:00;;;;;;;7.10;3.33;;;;;;;13.20;34.09;101079.75;5055503;28;20787;-83
2021/03/19 08:15:34;;;;;;;7.80;3.60;;;;;;;13.29;34.02;101081.59;5029166;28;20509;-83
2021/03/19 08:18:04;;;;;;;4.67;3.47;;;;;;;13.28;34.47;101081.75;5020626;28;20461;-82
2021/03/19 08:20:42;;;;;;;6.00;3.70;;;;;;;13.38;34.28;101085.34;5020189;28;20474;-80
2021/03/19 08:23:17;;;;;;;4.27;3.40;;;;;;;12.26;35.60;101081.75;5038324;28;20897;-81
2021/03/19 08:25:50;;;;;;;4.03;3.07;;;;;;;11.77;36.21;101084.00;5033058;28;20476;-81
2021/03/19 08:28:25;;;;;;;5.90;2.87;;;;;;;12.59;35.55;101086.03;5034196;28;20962;-81
2021/03/19 08:31:01;;;;;;;7.63;3.37;;;;;;;13.54;34.30;101095.53;5041929;28;20488;-80
2021/03/19 08:33:42;;;;;;;6.67;3.07;;;;;;;13.03;34.61;101102.72;5059742;28;20454;-80
2021/03/19 08:36:14;;;;;;;5.13;2.80;;;;;;;12.85;34.81;101102.53;5059066;28;20483;-81
2021/03/19 08:38:45;;;;;;;7.67;3.87;;;;;;;13.18;35.00;101109.44;5061958;28;20457;-80
2021/03/19 08:41:15;;;;;;;3.00;2.80;;;;;;;14.66;31.93;101103.13;5072181;28;20481;-81
2021/03/19 08:43:47;;;;;;;2.43;2.23;;;;;;;14.07;32.15;101107.75;5059491;28;20441;-81
2021/03/19 08:46:17;;;;;;;4.60;2.80;;;;;;;15.15;30.91;101103.78;5057426;28;20484;-81
2021/03/19 08:48:51;;;;;;;2.70;2.20;;;;;;;13.45;32.88;101110.66;5044060;28;20486;-79
2021/03/19 08:51:37;;;;;;;2.90;2.60;;;;;;;13.59;32.84;101114.78;5059347;28;20456;-81
2021/03/19 08:54:25;;;;;;;3.47;1.90;;;;;;;12.52;33.96;101114.38;5073218;28;20444;-80
2021/03/19 08:56:53;;;;;;;3.90;2.40;;;;;;;14.33;32.00;101116.06;5053075;28;20484;-80
2021/03/19 08:59:53;;;;;;;2.53;2.33;;;;;;;15.50;30.13;101125.56;5059024;28;20441;-81
2021/03/19 09:02:46;;;;;;;4.00;2.40;;;;;;;14.27;31.77;101122.03;5059514;28;20491;-82
2021/03/19 09:05:24;;;;;;;2.73;1.90;;;;;;;14.24;30.56;101122.31;5056645;28;20476;-82
2021/03/19 09:08:20;;;;;;;3.83;2.17;;;;;;;13.07;32.71;101122.97;5059408;28;20461;-84
2021/03/19 09:11:05;;;;;;;3.20;2.60;;;;;;;13.96;31.50;101132.94;5053401;28;20481;-82
2021/03/19 09:13:32;;;;;;;2.73;1.90;;;;;;;14.13;31.66;101129.53;5050876;28;20457;-84
2021/03/19 09:16:37;;;;;;;6.00;2.13;;;;;;;13.16;30.75;101127.53;5047225;28;20484;-82
2021/03/19 09:19:18;;;;;;;2.93;1.73;;;;;;;12.54;32.31;101129.31;5044667;28;20483;-83
2021/03/19 09:21:45;;;;;;;3.63;1.93;;;;;;;12.90;31.53;101137.03;5060145;28;20590;-82
2021/03/19 09:24:17;;;;;;;2.30;1.90;;;;;;;13.86;30.61;101141.00;5058200;28;20452;-81
2021/03/19 09:26:48;;;;;;;2.47;1.90;;;;;;;14.16;30.06;101149.91;5056557;28;20487;-84
2021/03/19 09:29:32;;;;;;;2.40;1.67;;;;;;;14.41;28.64;101145.78;5054755;28;20499;-81
2021/03/19 09:32:00;;;;;;;2.20;1.67;;;;;;;14.63;29.10;101144.66;5056365;28;20483;-82
2021/03/19 09:35:04;;;;;;;4.07;1.80;;;;;;;14.06;30.28;101152.63;5055995;28;20482;-84
2021/03/19 09:37:50;;;;;;;1.93;1.37;;;;;;;13.98;29.50;101147.09;5058434;28;21084;-83
2021/03/19 09:40:43;;;;;;;1.53;1.43;;;;;;;13.82;30.35;101149.47;5075081;28;20466;-84
2021/03/19 09:43:12;;;;;;;4.33;1.83;;;;;;;13.08;32.06;101148.81;5052287;28;20457;-84
2021/03/19 09:45:45;;;;;;;4.53;1.90;;;;;;;14.11;31.15;101147.66;5048691;28;20699;-83
2021/03/19 09:48:22;;;;;;;3.00;1.83;;;;;;;14.23;29.85;101153.72;5060667;28;20459;-82
2021/03/19 09:50:53;;;;;;;1.63;1.50;;;;;;;14.91;29.11;101157.31;5058348;28;20499;-82
2021/03/19 09:53:31;;;;;;;5.20;1.93;;;;;;;14.64;30.00;101158.97;5058437;28;20486;-81
2021/03/19 09:55:59;;;;;;;2.47;1.70;;;;;;;14.18;28.82;101156.00;5061769;28;20481;-80
2021/03/19 09:58:33;;;;;;;4.80;1.80;;;;;;;13.07;30.69;101154.31;5052945;28;20445;-83
2021/03/19 10:01:03;;;;;;;2.80;1.43;;;;;;;12.32;31.64;101153.59;5056206;28;20476;-82
2021/03/19 10:03:40;;;;;;;3.00;1.30;;;;;;;10.60;34.29;101162.94;5062443;28;20472;-80
2021/03/19 10:06:16;;;;;;;2.60;1.20;;;;;;;11.73;33.23;101160.25;5047833;28;20511;-80
2021/03/19 10:08:47;;;;;;;2.53;1.60;;;;;;;11.83;32.30;101154.00;5150888;22;20554;-80
2021/03/19 10:11:17;;;;;;;2.40;2.03;;;;;;;12.50;31.65;101153.84;5039238;28;20481;-83
2021/03/19 10:13:43;;;;;;;3.20;1.37;;;;;;;13.47;30.32;101145.44;5043124;28;20449;-83
2021/03/19 10:16:35;;;;;;;3.83;1.20;;;;;;;12.56;31.66;101145.28;5040024;28;20547;-85
2021/03/19 10:19:10;;;;;;;5.77;1.40;;;;;;;11.45;32.84;101147.28;5001238;28;20448;-84
2021/03/19 10:21:46;;;;;;;2.13;1.30;;;;;;;10.57;34.88;101145.31;5001039;28;20482;-82
2021/03/19 10:24:14;;;;;;;2.33;2.00;;;;;;;11.90;33.86;101140.94;4999728;28;20462;-83
2021/03/19 10:26:47;;;;;;;2.07;1.60;;;;;;;11.83;33.45;101134.41;4998165;28;20483;-72
2021/03/19 10:29:17;;;;;;;3.00;2.27;;;;;;;10.63;34.69;101144.00;5000726;28;20530;-71
2021/03/19 10:31:48;;;;;;;2.80;1.47;;;;;;;10.35;35.84;101141.63;4997417;28;20475;-75
2021/03/19 10:34:25;;;;;;;2.20;1.60;;;;;;;11.29;34.58;101155.69;4998460;28;20531;-76
2021/03/19 10:37:08;;;;;;;2.93;1.43;;;;;;;11.73;32.94;101146.84;5012952;28;20479;-79
2021/03/19 10:39:38;;;;;;;1.60;1.50;;;;;;;11.77;33.39;101142.94;4957835;28;20489;-80
2021/03/19 10:42:16;;;;;;;2.60;1.23;;;;;;;11.81;34.42;101147.06;4955980;29;20481;-79
2021/03/19 10:44:47;;;;;;;3.20;2.23;;;;;;;12.81;32.28;101147.56;4961102;29;20469;-78
2021/03/19 10:47:34;;;;;;;1.43;1.33;;;;;;;12.58;32.20;101151.38;4960679;28;20473;-78
2021/03/19 10:50:06;;;;;;;1.73;1.63;;;;;;;12.72;32.27;101152.88;4917018;29;20618;-75
2021/03/19 10:52:35;;;;;;;2.63;1.83;;;;;;;11.71;33.94;101163.03;4923205;29;20459;-76
2021/03/19 10:55:06;;;;;;;2.27;1.40;;;;;;;11.14;34.69;101159.59;4921415;29;20491;-75
2021/03/19 10:57:36;;;;;;;3.57;1.80;;;;;;;11.24;34.77;101167.75;4941485;29;20475;-76
2021/03/19 11:00:35;;;;;;;1.43;1.27;;;;;;;11.87;33.33;101155.47;4942497;29;20520;-79
2021/03/19 11:03:03;;;;;;;3.37;1.43;;;;;;;12.49;32.37;101160.22;4943646;29;20485;-76
2021/03/19 11:05:44;;;;;;;2.40;1.20;;;;;;;11.59;34.30;101158.69;4948676;29;20462;-79
2021/03/19 11:08:15;;;;;;;2.30;1.27;;;;;;;11.30;33.49;101168.13;4883450;29;20457;-83
2021/03/19 11:10:52;;;;;;;1.50;1.33;;;;;;;12.04;33.06;101159.44;4882058;29;21109;-76
2021/03/19 11:13:25;;;;;;;3.63;1.63;;;;;;;12.63;32.64;101159.88;4881981;29;20456;-77
2021/03/19 11:15:53;;;;;;;1.53;1.30;;;;;;;12.23;32.33;101163.28;4887213;29;20480;-78
2021/03/19 11:18:22;;;;;;;1.70;1.33;;;;;;;12.27;31.71;101153.13;4933303;29;20450;-77
2021/03/19 11:20:51;;;;;;;2.73;1.13;;;;;;;12.75;31.34;101161.50;4938072;29;20486;-72
2021/03/19 11:23:28;;;;;;;6.03;1.20;;;;;;;11.84;32.66;101168.28;4938130;29;20450;-79
2021/03/19 11:25:56;;;;;;;1.60;1.33;;;;;;;11.49;31.87;101175.53;4937731;29;20542;-78
2021/03/19 11:28:29;;;;;;;2.30;1.20;;;;;;;12.56;30.16;101169.44;4993284;28;20459;-84
2021/03/19 11:30:56;;;;;;;1.20;1.10;;;;;;;12.69;29.93;101178.16;4991235;28;20619;-85
2021/03/19 11:33:22;;;;;;;2.10;1.10;;;;;;;13.25;29.06;101166.13;4996623;28;20470;-83
2021/03/19 11:36:05;;;;;;;4.47;1.43;;;;;;;13.03;29.07;101169.00;4998596;28;20499;-86
2021/03/19 11:38:48;;;;;;;1.00;0.87;;;;;;;12.87;29.98;101170.34;4998019;28;20455;-74
2021/03/19 11:41:41;;;;;;;0.97;0.87;;;;;;;12.07;30.40;101176.28;4918412;29;20483;-72
2021/03/19 11:44:12;;;;;;;1.90;1.30;;;;;;;12.15;31.40;101177.31;4907274;29;20563;-71
2021/03/19 11:46:39;;;;;;;1.40;1.10;;;;;;;11.76;31.44;101166.19;4977021;28;20491;-72
2021/03/19 11:49:05;;;;;;;8.93;2.27;;;;;;;11.37;32.81;101181.88;4979642;28;20484;-72
2021/03/19 11:51:39;;;;;;;3.03;1.20;;;;;;;11.77;32.76;101169.72;4979015;28;20483;-71
2021/03/19 11:54:06;;;;;;;1.20;1.10;;;;;;;12.15;32.34;101173.78;4979313;28;20464;-73